»·PEaware :: UAL8564 KLAX-KRNO

UAL8564 :: KLAX-KRNO

FLIGHT INFORMATION

Flight Status: Arrived
Operator:
United Airlines
More flights by this operator :: More flights under this callsign
Pilot: Anonymous 15267 (15267)
Aircraft: BOEING 737-300
(B733)
More flights by this aircraft type
Origin: KLAX Los Angeles Intl
United States
Destination: KRNO Reno/Tahoe Intl
United States
More flights between these airports :: More routes between these airports
Route: +LADYJ4 CSTRO FMG
File this flight plan on PilotEdge
Remarks: RMK / SIMBRIEF
Altitude:
(Current/Filed)
36,000ft
Speed:
(Current/Filed)
433kts
Departed: 19-Feb-19 04:07 PM
Arrived: 19-Feb-19 05:13 PM
Distance/Time
Traveled:
345nm/1:06
Distance/Time
To Go:
Arrived

Flight Plot

Page will automatically refresh every two minutes.

Flight plan parsing failed; only flown route is shown


Map Options




Map Legend


Flown Route
Filed Route
Departure Airport
Arrival Airport
Navaid (VOR, NDB)
Fix

Horizontal Profiles

Position Reports

Time Latitude Longitude Heading Altitude Ground
Speed
19-Feb-19 15:24 33.941140 -118.400134 96 112ft 0kts
19-Feb-19 15:25 33.941140 -118.400134 96 112ft 0kts
19-Feb-19 15:26 33.941140 -118.400134 96 112ft 0kts
19-Feb-19 15:27 33.941140 -118.400134 96 112ft 0kts
19-Feb-19 15:28 33.941140 -118.400134 96 112ft 0kts
19-Feb-19 15:29 33.941140 -118.400134 96 112ft 0kts
19-Feb-19 15:30 33.941140 -118.400134 96 112ft 0kts
19-Feb-19 15:31 33.941140 -118.400134 96 112ft 0kts
19-Feb-19 15:32 33.941140 -118.400134 96 112ft 0kts
19-Feb-19 15:33 33.941140 -118.400134 96 112ft 0kts
19-Feb-19 15:34 33.941140 -118.400134 96 112ft 0kts
19-Feb-19 15:35 33.941140 -118.400134 96 112ft 0kts
19-Feb-19 15:36 33.941140 -118.400134 96 112ft 0kts
19-Feb-19 15:38 33.941140 -118.400134 96 112ft 0kts
19-Feb-19 15:39 33.941140 -118.400134 96 112ft 0kts
19-Feb-19 15:40 33.941140 -118.400134 96 112ft 0kts
19-Feb-19 15:41 33.941140 -118.400134 96 112ft 0kts
19-Feb-19 15:42 33.941140 -118.400134 96 112ft 0kts
19-Feb-19 15:43 33.941140 -118.400134 96 112ft 0kts
19-Feb-19 15:44 33.941140 -118.400134 96 112ft 0kts
19-Feb-19 15:45 33.941140 -118.400134 96 112ft 0kts
19-Feb-19 15:46 33.941140 -118.400134 96 112ft 0kts
19-Feb-19 15:47 33.941140 -118.400134 96 112ft 0kts
19-Feb-19 15:48 33.941140 -118.400134 96 112ft 0kts
19-Feb-19 15:49 33.941140 -118.400134 96 112ft 0kts
19-Feb-19 15:50 33.941140 -118.400134 96 112ft 0kts
19-Feb-19 15:51 33.941140 -118.400134 96 112ft 0kts
19-Feb-19 15:52 33.941140 -118.400134 96 112ft 0kts
19-Feb-19 15:53 33.941140 -118.400134 96 112ft 0kts
19-Feb-19 15:54 33.941158 -118.400353 95 112ft 2kts
19-Feb-19 15:55 33.941389 -118.400828 177 112ft 0kts
19-Feb-19 15:56 33.940667 -118.400722 174 112ft 0kts
19-Feb-19 15:57 33.940667 -118.400722 174 112ft 0kts
19-Feb-19 15:58 33.940667 -118.400722 174 112ft 0kts
19-Feb-19 15:58 33.940667 -118.400722 174 112ft 0kts
19-Feb-19 16:00 33.940127 -118.400634 171 112ft 9kts
19-Feb-19 16:01 33.939121 -118.396860 85 112ft 13kts
19-Feb-19 16:02 33.939645 -118.391453 84 112ft 18kts
19-Feb-19 16:02 33.940105 -118.386900 84 112ft 8kts
19-Feb-19 16:03 33.940346 -118.384680 81 112ft 0kts
19-Feb-19 16:05 33.940363 -118.384553 82 112ft 2kts
19-Feb-19 16:05 33.940065 -118.383264 168 112ft 9kts
19-Feb-19 16:06 33.937257 -118.404549 261 290ft 152kts
19-Feb-19 16:07 33.930645 -118.460273 264 2421ft 187kts
19-Feb-19 16:08 33.924884 -118.537194 264 4101ft 259kts
19-Feb-19 16:09 33.923306 -118.624668 300 7044ft 268kts
19-Feb-19 16:10 33.985374 -118.672650 334 8005ft 271kts
19-Feb-19 16:11 34.059938 -118.674175 2 7989ft 269kts
19-Feb-19 16:12 34.135368 -118.658513 8 10321ft 275kts
19-Feb-19 16:13 34.219261 -118.638554 8 12353ft 319kts
19-Feb-19 16:14 34.307268 -118.646972 347 15095ft 326kts
19-Feb-19 16:15 34.397679 -118.667656 347 17677ft 337kts
19-Feb-19 16:16 34.491630 -118.686953 348 19993ft 348kts
19-Feb-19 16:17 34.588893 -118.706250 347 22103ft 359kts
19-Feb-19 16:18 34.688860 -118.725829 347 24040ft 368kts
19-Feb-19 16:19 34.782634 -118.774757 328 25733ft 374kts
19-Feb-19 16:20 34.874365 -118.838156 329 27355ft 383kts
19-Feb-19 16:21 34.968334 -118.902888 328 29090ft 384kts
19-Feb-19 16:22 35.060760 -118.966618 328 30830ft 379kts
19-Feb-19 16:23 35.148920 -119.027449 328 32231ft 378kts
19-Feb-19 16:24 35.240623 -119.090913 328 33602ft 373kts
19-Feb-19 16:25 35.331266 -119.153822 329 34632ft 373kts
19-Feb-19 16:26 35.422533 -119.216900 328 35521ft 372kts
19-Feb-19 16:27 35.522246 -119.244827 354 36023ft 383kts
19-Feb-19 16:28 35.630932 -119.253153 351 36064ft 389kts
19-Feb-19 16:29 35.739187 -119.263719 351 36055ft 387kts
19-Feb-19 16:30 35.847318 -119.274358 351 36057ft 387kts
19-Feb-19 16:31 35.955215 -119.284981 351 36069ft 388kts
19-Feb-19 16:32 36.063748 -119.295686 352 36076ft 386kts
19-Feb-19 16:33 36.167711 -119.305940 352 36078ft 386kts
19-Feb-19 16:34 36.275489 -119.316632 352 36076ft 386kts
19-Feb-19 16:35 36.383145 -119.327305 352 36076ft 386kts
19-Feb-19 16:36 36.490762 -119.338047 352 36075ft 386kts
19-Feb-19 16:37 36.597993 -119.348846 352 36064ft 385kts
19-Feb-19 16:38 36.705348 -119.359639 353 36057ft 385kts
19-Feb-19 16:39 36.812863 -119.370454 353 36057ft 385kts
19-Feb-19 16:40 36.920147 -119.381267 353 36056ft 385kts
19-Feb-19 16:41 37.027827 -119.392173 353 36057ft 384kts
19-Feb-19 16:42 37.131131 -119.402658 353 36031ft 385kts
19-Feb-19 16:43 37.238299 -119.413495 353 36004ft 384kts
19-Feb-19 16:44 37.344785 -119.424356 354 35961ft 382kts
19-Feb-19 16:45 37.451088 -119.435261 354 35966ft 382kts
19-Feb-19 16:46 37.557457 -119.446183 354 35965ft 382kts
19-Feb-19 16:47 37.664273 -119.457175 354 35965ft 382kts
19-Feb-19 16:48 37.770496 -119.468125 354 35965ft 382kts
19-Feb-19 16:49 37.877061 -119.479219 354 35943ft 382kts
19-Feb-19 16:50 37.983471 -119.490256 354 35928ft 382kts
19-Feb-19 16:51 38.089857 -119.501331 355 35927ft 380kts
19-Feb-19 16:52 38.193044 -119.512401 356 33662ft 382kts
19-Feb-19 16:53 38.297855 -119.522854 357 31154ft 370kts
19-Feb-19 16:54 38.400798 -119.533361 358 28656ft 372kts
19-Feb-19 16:55 38.505284 -119.544304 358 26158ft 377kts
19-Feb-19 16:56 38.609996 -119.555394 358 23646ft 370kts
19-Feb-19 16:57 38.711058 -119.566132 357 21125ft 356kts
19-Feb-19 16:58 38.807879 -119.576364 356 18614ft 341kts
19-Feb-19 16:59 38.899513 -119.586273 355 17071ft 319kts
19-Feb-19 17:00 38.987192 -119.596279 355 16074ft 302kts
19-Feb-19 17:01 39.071549 -119.605344 355 16005ft 306kts
19-Feb-19 17:02 39.154686 -119.614247 355 15424ft 304kts
19-Feb-19 17:03 39.239109 -119.623331 355 14009ft 301kts
19-Feb-19 17:04 39.321490 -119.632240 355 12294ft 288kts
19-Feb-19 17:05 39.397371 -119.640247 355 11136ft 255kts
19-Feb-19 17:06 39.466504 -119.647709 355 10212ft 250kts
19-Feb-19 17:07 39.533903 -119.658112 346 9521ft 248kts
19-Feb-19 17:08 39.595742 -119.682739 297 8115ft 221kts
19-Feb-19 17:09 39.599534 -119.749895 245 6900ft 165kts
19-Feb-19 17:10 39.564407 -119.769175 181 5602ft 144kts
19-Feb-19 17:11 39.523423 -119.769131 180 4760ft 144kts
19-Feb-19 17:12 39.493884 -119.769429 189 4418ft 25kts
19-Feb-19 17:13 39.492627 -119.770503 251 4418ft 1kts
19-Feb-19 17:14 39.494419 -119.771516 359 4418ft 14kts
19-Feb-19 17:15 39.499264 -119.771508 359 4418ft 19kts
19-Feb-19 17:16 39.504610 -119.771491 1 4418ft 18kts
19-Feb-19 17:17 39.505397 -119.773175 179 4418ft 3kts
19-Feb-19 17:18 39.505215 -119.773178 179 4418ft 0kts
19-Feb-19 17:19 39.584359 -119.767745 191 6195ft 148kts

Navigation Log

Ident Type
Flight plan parsing failed, navigation log unavailable